Time;durP1;ratioP1;P1;durP2;ratioP2;P2;SDS_P1;SDS_P2;PMS_P1;PMS_P2;Temp;Humidity;BMP_temperature;BMP_pressure;BME280_temperature;BME280_humidity;BME280_pressure;Samples;Min_cycle;Max_cycle;Signal;HPM_P1;HPM_P2
2021/07/13 00:00:38;;;;;;;21.97;20.53;;;;;;;;;;5057427;28;20456;-84
2021/07/13 00:03:06;;;;;;;23.77;22.27;;;;;;;;;;5057018;28;20412;-84
2021/07/13 00:05:34;;;;;;;22.80;21.60;;;;;;;;;;5056674;28;20419;-84
2021/07/13 00:08:02;;;;;;;23.40;22.17;;;;;;;;;;5056707;28;20411;-84
2021/07/13 00:10:31;;;;;;;22.87;21.57;;;;;;;;;;5056948;28;20502;-84
2021/07/13 00:12:59;;;;;;;23.30;21.90;;;;;;;;;;5056877;28;20448;-84
2021/07/13 00:15:28;;;;;;;22.90;21.60;;;;;;;;;;5056575;28;20441;-84
2021/07/13 00:17:56;;;;;;;22.27;21.07;;;;;;;;;;5056588;28;20442;-84
2021/07/13 00:20:24;;;;;;;22.70;21.43;;;;;;;;;;5056521;28;20949;-84
2021/07/13 00:22:51;;;;;;;23.20;21.57;;;;;;;;;;5057119;28;20437;-84
2021/07/13 00:25:19;;;;;;;22.20;21.00;;;;;;;;;;5056653;28;20485;-84
2021/07/13 00:27:48;;;;;;;23.43;22.03;;;;;;;;;;5056644;28;20411;-84
2021/07/13 00:30:16;;;;;;;22.30;21.10;;;;;;;;;;5056640;28;20435;-84
2021/07/13 00:32:44;;;;;;;22.97;21.17;;;;;;;;;;5038513;28;20470;-85
2021/07/13 00:35:12;;;;;;;22.43;21.17;;;;;;;;;;5038695;28;20942;-83
2021/07/13 00:37:41;;;;;;;21.70;20.50;;;;;;;;;;5056624;28;20412;-84
2021/07/13 00:40:09;;;;;;;20.80;19.70;;;;;;;;;;5055660;28;20496;-84
2021/07/13 00:42:37;;;;;;;22.77;21.47;;;;;;;;;;5055996;28;20427;-84
2021/07/13 00:45:07;;;;;;;22.63;21.33;;;;;;;;;;5056301;28;20419;-84
2021/07/13 00:47:35;;;;;;;22.13;20.83;;;;;;;;;;5056330;28;20424;-84
2021/07/13 00:50:03;;;;;;;21.00;19.90;;;;;;;;;;5055938;28;20444;-84
2021/07/13 00:52:30;;;;;;;23.57;22.30;;;;;;;;;;5055933;28;20427;-84
2021/07/13 00:54:58;;;;;;;22.70;21.40;;;;;;;;;;5056137;28;20427;-83
2021/07/13 00:57:25;;;;;;;23.40;22.10;;;;;;;;;;5055635;28;20439;-84
2021/07/13 00:59:53;;;;;;;23.47;22.07;;;;;;;;;;5055686;28;20459;-84
2021/07/13 01:02:23;;;;;;;22.93;21.73;;;;;;;;;;5055662;28;20503;-84
2021/07/13 01:04:51;;;;;;;22.07;20.97;;;;;;;;;;5055847;28;20462;-84
2021/07/13 01:07:20;;;;;;;21.97;20.70;;;;;;;;;;5038036;28;20914;-84
2021/07/13 01:09:53;;;;;;;22.03;20.93;;;;;;;;;;5055612;28;20774;-84
2021/07/13 01:12:24;;;;;;;22.27;21.10;;;;;;;;;;5055867;28;20437;-84
2021/07/13 01:14:53;;;;;;;22.73;21.53;;;;;;;;;;5055703;28;20409;-84
2021/07/13 01:17:25;;;;;;;22.87;21.67;;;;;;;;;;5055612;28;20430;-84
2021/07/13 01:20:04;;;;;;;24.33;22.83;;;;;;;;;;5055469;28;20467;-84
2021/07/13 01:22:33;;;;;;;25.63;24.03;;;;;;;;;;5055613;28;20452;-84
2021/07/13 01:25:10;;;;;;;22.53;20.93;;;;;;;;;;5055576;28;20442;-84
2021/07/13 01:27:56;;;;;;;22.47;21.27;;;;;;;;;;5055547;28;20414;-84
2021/07/13 01:30:26;;;;;;;22.37;20.90;;;;;;;;;;5045504;28;20918;-84
2021/07/13 01:32:57;;;;;;;23.23;21.93;;;;;;;;;;5055029;28;20453;-84
2021/07/13 01:35:26;;;;;;;24.03;22.50;;;;;;;;;;5055447;28;20440;-83
2021/07/13 01:37:54;;;;;;;23.33;22.03;;;;;;;;;;5055036;28;20424;-84
2021/07/13 01:40:23;;;;;;;23.30;21.73;;;;;;;;;;5054910;28;20505;-84
2021/07/13 01:42:51;;;;;;;23.23;21.93;;;;;;;;;;5037169;28;20424;-84
2021/07/13 01:45:19;;;;;;;23.53;22.23;;;;;;;;;;5055385;28;20473;-84
2021/07/13 01:47:48;;;;;;;22.80;21.50;;;;;;;;;;5055190;28;20443;-84
2021/07/13 01:50:16;;;;;;;22.80;21.60;;;;;;;;;;5054384;28;20807;-83
2021/07/13 01:52:44;;;;;;;24.27;22.77;;;;;;;;;;5054415;28;20407;-83
2021/07/13 01:55:12;;;;;;;23.67;22.37;;;;;;;;;;5037155;28;20929;-84
2021/07/13 01:57:40;;;;;;;22.57;21.33;;;;;;;;;;5054714;28;20419;-83
2021/07/13 02:00:10;;;;;;;23.90;22.30;;;;;;;;;;5036959;28;20458;-83
2021/07/13 02:02:38;;;;;;;22.40;21.10;;;;;;;;;;5054670;28;20440;-83
2021/07/13 02:05:09;;;;;;;24.50;23.00;;;;;;;;;;5037002;28;20422;-84
2021/07/13 02:07:37;;;;;;;24.27;22.77;;;;;;;;;;5054748;28;20430;-84
2021/07/13 02:10:06;;;;;;;23.43;22.10;;;;;;;;;;5054386;28;20456;-84
2021/07/13 02:12:34;;;;;;;22.93;21.50;;;;;;;;;;5054323;28;20472;-84
2021/07/13 02:15:02;;;;;;;23.17;21.87;;;;;;;;;;5054691;28;20470;-84
2021/07/13 02:17:31;;;;;;;22.90;21.70;;;;;;;;;;5054326;28;20425;-83
2021/07/13 02:19:59;;;;;;;24.20;22.60;;;;;;;;;;5036637;28;20483;-84
2021/07/13 02:22:28;;;;;;;22.10;20.90;;;;;;;;;;5054521;28;20893;-84
2021/07/13 02:24:56;;;;;;;23.50;22.20;;;;;;;;;;5054435;28;20459;-84
2021/07/13 02:27:27;;;;;;;24.00;22.17;;;;;;;;;;5054158;28;20440;-84
2021/07/13 02:29:56;;;;;;;23.13;21.83;;;;;;;;;;5054314;28;20416;-83
2021/07/13 02:32:26;;;;;;;22.83;21.50;;;;;;;;;;5054287;28;20796;-83
2021/07/13 02:34:54;;;;;;;22.60;21.17;;;;;;;;;;5054793;28;20906;-83
2021/07/13 02:37:22;;;;;;;22.17;20.97;;;;;;;;;;5053965;28;20411;-84
2021/07/13 02:39:51;;;;;;;24.00;22.50;;;;;;;;;;5053979;28;20464;-83
2021/07/13 02:42:19;;;;;;;22.90;21.63;;;;;;;;;;5053962;28;20425;-83
2021/07/13 02:44:47;;;;;;;24.10;22.60;;;;;;;;;;5054173;28;20406;-84
2021/07/13 02:47:15;;;;;;;23.53;22.20;;;;;;;;;;5054276;28;20410;-84
2021/07/13 02:49:47;;;;;;;21.97;20.73;;;;;;;;;;5054089;28;20493;-83
2021/07/13 02:52:16;;;;;;;22.63;21.43;;;;;;;;;;5053924;28;20542;-83
2021/07/13 02:54:43;;;;;;;22.77;21.37;;;;;;;;;;5053659;28;20460;-83
2021/07/13 02:57:13;;;;;;;22.63;21.23;;;;;;;;;;5053590;28;20461;-84
2021/07/13 02:59:41;;;;;;;22.00;20.77;;;;;;;;;;5053544;28;20483;-84
2021/07/13 03:02:08;;;;;;;22.70;21.50;;;;;;;;;;5053427;28;20876;-84
2021/07/13 03:04:36;;;;;;;23.27;21.97;;;;;;;;;;5053987;28;20447;-84
2021/07/13 03:07:04;;;;;;;22.50;21.27;;;;;;;;;;5053876;28;20435;-83
2021/07/13 03:09:31;;;;;;;22.23;20.97;;;;;;;;;;5053621;28;20948;-84
2021/07/13 03:11:59;;;;;;;22.10;20.73;;;;;;;;;;5035987;28;20920;-84
2021/07/13 03:14:29;;;;;;;21.90;20.80;;;;;;;;;;5053794;28;20455;-84
2021/07/13 03:16:57;;;;;;;21.57;20.27;;;;;;;;;;5053402;28;20486;-84
2021/07/13 03:19:24;;;;;;;21.40;20.10;;;;;;;;;;5053404;28;20913;-84
2021/07/13 03:21:53;;;;;;;22.27;20.97;;;;;;;;;;5053422;28;20440;-84
2021/07/13 03:24:22;;;;;;;22.17;20.97;;;;;;;;;;5053630;28;20480;-84
2021/07/13 03:26:50;;;;;;;21.33;20.23;;;;;;;;;;5053052;28;20499;-84
2021/07/13 03:29:18;;;;;;;22.00;20.60;;;;;;;;;;5053685;28;20441;-84
2021/07/13 03:31:48;;;;;;;22.60;21.20;;;;;;;;;;5053296;28;20436;-84
2021/07/13 03:34:16;;;;;;;22.43;21.13;;;;;;;;;;5053295;28;20408;-83
2021/07/13 03:36:44;;;;;;;21.93;20.70;;;;;;;;;;5053310;28;20594;-83
2021/07/13 03:39:12;;;;;;;21.50;20.40;;;;;;;;;;5054338;28;20407;-79
2021/07/13 03:41:39;;;;;;;22.40;21.20;;;;;;;;;;5052524;28;20481;-79
2021/07/13 03:44:07;;;;;;;21.93;20.83;;;;;;;;;;5053071;28;20407;-79
2021/07/13 03:46:36;;;;;;;22.40;21.20;;;;;;;;;;5053445;28;20434;-84
2021/07/13 03:49:05;;;;;;;21.90;20.70;;;;;;;;;;5053225;28;20513;-84
2021/07/13 03:51:40;;;;;;;22.60;21.20;;;;;;;;;;5053335;28;20884;-79
2021/07/13 03:54:08;;;;;;;21.37;20.07;;;;;;;;;;5052913;28;20447;-79
2021/07/13 03:56:36;;;;;;;22.20;20.90;;;;;;;;;;5053088;28;20446;-79
2021/07/13 03:59:03;;;;;;;21.50;20.40;;;;;;;;;;5053013;28;20435;-83
2021/07/13 04:01:31;;;;;;;23.00;21.50;;;;;;;;;;5052932;28;20459;-84
2021/07/13 04:03:58;;;;;;;21.90;20.70;;;;;;;;;;5053314;28;20412;-82
2021/07/13 04:06:27;;;;;;;22.23;20.70;;;;;;;;;;5052865;28;20418;-79
2021/07/13 04:08:54;;;;;;;21.60;20.30;;;;;;;;;;5052777;28;20431;-79
2021/07/13 04:11:21;;;;;;;21.80;20.60;;;;;;;;;;5052755;28;20440;-83
2021/07/13 04:13:49;;;;;;;20.83;19.57;;;;;;;;;;5053505;28;20436;-84
2021/07/13 04:16:16;;;;;;;21.40;20.20;;;;;;;;;;5039017;28;20443;-84
2021/07/13 04:18:44;;;;;;;22.40;21.20;;;;;;;;;;5056846;28;20440;-79
2021/07/13 04:21:11;;;;;;;21.33;20.03;;;;;;;;;;5056883;28;20805;-79
2021/07/13 04:23:40;;;;;;;22.87;21.67;;;;;;;;;;5056191;28;20469;-79
2021/07/13 04:26:08;;;;;;;21.57;20.47;;;;;;;;;;5056532;28;20927;-84
2021/07/13 04:28:36;;;;;;;22.03;20.53;;;;;;;;;;5057122;28;20440;-84
2021/07/13 04:31:04;;;;;;;21.23;20.13;;;;;;;;;;5056546;28;20452;-79
2021/07/13 04:33:31;;;;;;;22.93;21.53;;;;;;;;;;5056476;28;20422;-79
2021/07/13 04:35:59;;;;;;;22.03;20.60;;;;;;;;;;5056449;28;20422;-78
2021/07/13 04:38:26;;;;;;;21.50;20.10;;;;;;;;;;5056183;28;20797;-84
2021/07/13 04:40:55;;;;;;;22.30;21.10;;;;;;;;;;5055926;28;20854;-84
2021/07/13 04:43:22;;;;;;;21.27;20.17;;;;;;;;;;5056128;28;20411;-81
2021/07/13 04:45:50;;;;;;;22.13;20.87;;;;;;;;;;5055869;28;20461;-79
2021/07/13 04:48:17;;;;;;;22.10;20.90;;;;;;;;;;5056212;28;20933;-79
2021/07/13 04:50:45;;;;;;;22.83;21.53;;;;;;;;;;5055875;28;20898;-79
2021/07/13 04:53:12;;;;;;;22.50;21.10;;;;;;;;;;5056038;28;20761;-79
2021/07/13 04:55:39;;;;;;;22.43;21.03;;;;;;;;;;5055660;28;20902;-79
2021/07/13 04:58:08;;;;;;;23.60;22.40;;;;;;;;;;5055924;28;20441;-79
2021/07/13 05:00:36;;;;;;;22.13;20.73;;;;;;;;;;5055583;28;21025;-79
2021/07/13 05:03:03;;;;;;;23.27;22.07;;;;;;;;;;5055738;28;20450;-78
2021/07/13 05:05:30;;;;;;;23.57;22.27;;;;;;;;;;5055917;28;20428;-79
2021/07/13 05:07:58;;;;;;;23.70;22.40;;;;;;;;;;5056638;28;20444;-79
2021/07/13 05:10:25;;;;;;;23.90;22.70;;;;;;;;;;5055405;28;20450;-79
2021/07/13 05:12:52;;;;;;;25.07;23.40;;;;;;;;;;5055437;28;20911;-78
2021/07/13 05:15:21;;;;;;;24.83;23.43;;;;;;;;;;5055323;28;20451;-79
2021/07/13 05:17:49;;;;;;;23.63;22.33;;;;;;;;;;5037822;28;20415;-79
2021/07/13 05:20:16;;;;;;;24.60;23.00;;;;;;;;;;5055468;28;20985;-79
2021/07/13 05:22:44;;;;;;;23.63;22.23;;;;;;;;;;5055176;28;20928;-79
2021/07/13 05:25:12;;;;;;;24.43;22.73;;;;;;;;;;5054123;28;20971;-80
2021/07/13 05:27:40;;;;;;;23.37;22.20;;;;;;;;;;5036799;28;20455;-79
2021/07/13 05:30:09;;;;;;;24.37;22.90;;;;;;;;;;5055408;28;20420;-78
2021/07/13 05:32:38;;;;;;;25.17;23.73;;;;;;;;;;5055259;28;20506;-78
2021/07/13 05:35:06;;;;;;;24.97;23.17;;;;;;;;;;5055315;28;20761;-78
2021/07/13 05:37:34;;;;;;;23.90;22.50;;;;;;;;;;5054974;28;20891;-78
2021/07/13 05:40:02;;;;;;;22.87;21.67;;;;;;;;;;5054900;28;20503;-78
2021/07/13 05:42:29;;;;;;;23.43;22.23;;;;;;;;;;5054872;28;20434;-78
2021/07/13 05:44:56;;;;;;;24.37;22.73;;;;;;;;;;5055082;28;20428;-79
2021/07/13 05:47:24;;;;;;;24.17;22.87;;;;;;;;;;5054766;28;20444;-78
2021/07/13 05:49:54;;;;;;;24.53;23.00;;;;;;;;;;5055031;28;20437;-79
2021/07/13 05:52:21;;;;;;;23.67;22.27;;;;;;;;;;5054756;28;20434;-79
2021/07/13 05:54:49;;;;;;;24.87;23.23;;;;;;;;;;5055053;28;20445;-79
2021/07/13 05:57:16;;;;;;;24.80;23.40;;;;;;;;;;5054465;28;20434;-79
2021/07/13 05:59:43;;;;;;;25.17;23.70;;;;;;;;;;5055050;28;20431;-77
2021/07/13 06:02:11;;;;;;;27.23;25.73;;;;;;;;;;5054237;28;20487;-84
2021/07/13 06:04:38;;;;;;;26.43;24.83;;;;;;;;;;5054707;28;20412;-81
2021/07/13 06:07:07;;;;;;;28.13;26.33;;;;;;;;;;5054607;28;20450;-79
2021/07/13 06:09:35;;;;;;;28.00;26.30;;;;;;;;;;5054448;28;20517;-79
2021/07/13 06:12:02;;;;;;;27.87;26.27;;;;;;;;;;5036546;28;20994;-78
2021/07/13 06:14:29;;;;;;;28.27;26.50;;;;;;;;;;5036978;28;20788;-78
2021/07/13 06:16:57;;;;;;;27.13;25.53;;;;;;;;;;5054183;28;20410;-78
2021/07/13 06:19:24;;;;;;;27.90;26.20;;;;;;;;;;5054647;28;20481;-78
2021/07/13 06:21:52;;;;;;;28.80;26.90;;;;;;;;;;5054231;28;20498;-78
2021/07/13 06:24:20;;;;;;;28.03;26.33;;;;;;;;;;5053984;28;20439;-78
2021/07/13 06:26:48;;;;;;;26.37;24.67;;;;;;;;;;5053919;28;20415;-78
2021/07/13 06:29:15;;;;;;;26.47;24.83;;;;;;;;;;5055104;28;20520;-78
2021/07/13 06:31:43;;;;;;;27.83;26.20;;;;;;;;;;5054098;28;20442;-78
2021/07/13 06:34:11;;;;;;;27.80;26.10;;;;;;;;;;5053955;28;20433;-79
2021/07/13 06:36:38;;;;;;;26.67;24.87;;;;;;;;;;5053407;28;20442;-79
2021/07/13 06:39:06;;;;;;;27.90;26.23;;;;;;;;;;5053896;28;20412;-78
2021/07/13 06:41:35;;;;;;;27.57;25.80;;;;;;;;;;5053506;28;20573;-78
2021/07/13 06:44:02;;;;;;;26.50;24.90;;;;;;;;;;5036354;28;20400;-78
2021/07/13 06:46:31;;;;;;;27.77;26.10;;;;;;;;;;5053985;28;20807;-78
2021/07/13 06:49:01;;;;;;;28.50;26.60;;;;;;;;;;5053898;28;20417;-78
2021/07/13 06:51:28;;;;;;;28.57;26.87;;;;;;;;;;5053923;28;20426;-79
2021/07/13 06:53:55;;;;;;;27.27;25.60;;;;;;;;;;5053841;28;20448;-79
2021/07/13 06:56:23;;;;;;;28.30;26.50;;;;;;;;;;5053431;28;20422;-78
2021/07/13 06:58:52;;;;;;;29.53;26.77;;;;;;;;;;5035937;28;20423;-79
2021/07/13 07:01:19;;;;;;;28.10;26.10;;;;;;;;;;5053906;28;20466;-79
2021/07/13 07:03:47;;;;;;;28.27;26.50;;;;;;;;;;5053767;28;20754;-79
2021/07/13 07:06:14;;;;;;;28.40;26.60;;;;;;;;;;5053677;28;20419;-79
2021/07/13 07:08:42;;;;;;;26.50;24.67;;;;;;;;;;5053473;28;20487;-79
2021/07/13 07:11:09;;;;;;;27.57;25.77;;;;;;;;;;5053253;28;20449;-79
2021/07/13 07:13:36;;;;;;;29.30;26.87;;;;;;;;;;5053759;28;20822;-79
2021/07/13 07:16:05;;;;;;;28.57;26.80;;;;;;;;;;5053641;28;20416;-79
2021/07/13 07:18:33;;;;;;;30.30;28.20;;;;;;;;;;5053249;28;20921;-79
2021/07/13 07:21:00;;;;;;;29.13;27.30;;;;;;;;;;5053457;28;20440;-79
2021/07/13 07:23:28;;;;;;;27.60;25.90;;;;;;;;;;5053433;28;20930;-79
2021/07/13 07:25:55;;;;;;;30.30;28.27;;;;;;;;;;5053166;28;20422;-79
2021/07/13 07:28:22;;;;;;;28.80;26.97;;;;;;;;;;5053609;28;20441;-79
2021/07/13 07:30:50;;;;;;;28.83;26.70;;;;;;;;;;5053287;28;20460;-79
2021/07/13 07:33:18;;;;;;;29.40;27.60;;;;;;;;;;5053439;28;20439;-79
2021/07/13 07:35:46;;;;;;;31.37;29.33;;;;;;;;;;5053665;28;20415;-79
2021/07/13 07:38:13;;;;;;;31.00;28.77;;;;;;;;;;5053165;28;20464;-79
2021/07/13 07:40:42;;;;;;;31.57;29.40;;;;;;;;;;5052940;28;20462;-78
2021/07/13 07:43:09;;;;;;;32.40;30.00;;;;;;;;;;5052883;28;20430;-79
2021/07/13 07:45:37;;;;;;;32.13;29.80;;;;;;;;;;5053568;28;20429;-79
2021/07/13 07:48:05;;;;;;;31.10;29.13;;;;;;;;;;5053233;28;20449;-79
2021/07/13 07:50:34;;;;;;;31.40;29.30;;;;;;;;;;5056552;28;20413;-78
2021/07/13 07:53:01;;;;;;;31.37;29.10;;;;;;;;;;5056903;28;20437;-78
2021/07/13 07:55:29;;;;;;;30.80;28.40;;;;;;;;;;5057194;28;20440;-79
2021/07/13 07:57:57;;;;;;;29.87;27.90;;;;;;;;;;5056709;28;20445;-78
2021/07/13 08:00:25;;;;;;;30.20;28.20;;;;;;;;;;5056772;28;20412;-78
2021/07/13 08:02:52;;;;;;;31.70;29.50;;;;;;;;;;5056577;28;20483;-78
2021/07/13 08:05:19;;;;;;;31.23;29.03;;;;;;;;;;5056731;28;20443;-78
2021/07/13 08:07:48;;;;;;;30.70;28.60;;;;;;;;;;5056677;28;20506;-79
2021/07/13 08:10:17;;;;;;;31.63;29.43;;;;;;;;;;5056601;28;20951;-79
2021/07/13 08:12:44;;;;;;;31.87;29.47;;;;;;;;;;5056642;28;20770;-79
2021/07/13 08:15:12;;;;;;;33.57;31.10;;;;;;;;;;5056913;28;20815;-79
2021/07/13 08:17:41;;;;;;;33.87;31.30;;;;;;;;;;5056529;28;20763;-78
2021/07/13 08:20:10;;;;;;;31.23;29.00;;;;;;;;;;5056438;28;20943;-78
2021/07/13 08:22:38;;;;;;;33.60;31.03;;;;;;;;;;5056537;28;20497;-79
2021/07/13 08:25:07;;;;;;;33.60;31.40;;;;;;;;;;5056509;28;20458;-79
2021/07/13 08:27:35;;;;;;;34.53;31.87;;;;;;;;;;5038675;28;20969;-78
2021/07/13 08:30:02;;;;;;;33.53;31.30;;;;;;;;;;5056653;28;20438;-78
2021/07/13 08:32:30;;;;;;;38.03;35.20;;;;;;;;;;5055288;28;20736;-78
2021/07/13 08:34:57;;;;;;;37.30;34.57;;;;;;;;;;5056459;28;20452;-79
2021/07/13 08:37:25;;;;;;;36.83;34.00;;;;;;;;;;5056453;28;20416;-78
2021/07/13 08:39:53;;;;;;;35.03;32.43;;;;;;;;;;5055569;28;20486;-77
2021/07/13 08:42:22;;;;;;;35.53;33.10;;;;;;;;;;5055828;28;20462;-77
2021/07/13 08:44:49;;;;;;;36.57;34.10;;;;;;;;;;5055972;28;20442;-77
2021/07/13 08:47:17;;;;;;;35.70;33.13;;;;;;;;;;5056267;28;20445;-78
2021/07/13 08:49:45;;;;;;;37.97;35.30;;;;;;;;;;5056258;28;20458;-78
2021/07/13 08:52:12;;;;;;;35.00;32.63;;;;;;;;;;5038526;28;20424;-78
2021/07/13 08:54:40;;;;;;;37.13;34.43;;;;;;;;;;5056101;28;20426;-78
2021/07/13 08:57:09;;;;;;;35.20;32.57;;;;;;;;;;5055893;28;20438;-78
2021/07/13 08:59:38;;;;;;;35.13;32.53;;;;;;;;;;5055773;28;20782;-78
2021/07/13 09:02:06;;;;;;;35.00;32.80;;;;;;;;;;5055652;28;20463;-78
2021/07/13 09:04:34;;;;;;;33.73;31.43;;;;;;;;;;5055589;28;20774;-78
2021/07/13 09:07:06;;;;;;;35.37;32.87;;;;;;;;;;5056237;28;20820;-77
2021/07/13 09:09:34;;;;;;;34.30;31.93;;;;;;;;;;5055502;28;20490;-78
2021/07/13 09:12:09;;;;;;;34.63;32.33;;;;;;;;;;5055713;28;20515;-77
2021/07/13 09:15:04;;;;;;;32.90;30.70;;;;;;;;;;5055848;28;20414;-78
2021/07/13 09:17:34;;;;;;;32.93;30.83;;;;;;;;;;4994301;28;20448;-81
2021/07/13 09:20:02;;;;;;;33.60;31.40;;;;;;;;;;4993977;28;20426;-77
2021/07/13 09:22:30;;;;;;;34.13;32.03;;;;;;;;;;4993786;28;20484;-78
2021/07/13 09:24:57;;;;;;;33.50;31.30;;;;;;;;;;4994217;28;20471;-76
2021/07/13 09:27:24;;;;;;;32.43;30.23;;;;;;;;;;4994038;28;20427;-77
2021/07/13 09:29:53;;;;;;;33.10;30.77;;;;;;;;;;4993888;28;20445;-77
2021/07/13 09:32:25;;;;;;;31.23;29.33;;;;;;;;;;4993819;28;20448;-77
2021/07/13 09:34:56;;;;;;;32.37;30.17;;;;;;;;;;4993975;28;20440;-78
2021/07/13 09:37:24;;;;;;;35.33;32.93;;;;;;;;;;4993748;28;20511;-78
2021/07/13 09:39:59;;;;;;;34.03;31.80;;;;;;;;;;4993354;28;20428;-78
2021/07/13 09:42:28;;;;;;;32.37;30.20;;;;;;;;;;4993495;28;20856;-77
2021/07/13 09:45:15;;;;;;;31.60;29.60;;;;;;;;;;4993563;28;20968;-77
2021/07/13 09:47:43;;;;;;;32.57;30.47;;;;;;;;;;4993762;28;20452;-77
2021/07/13 09:50:12;;;;;;;34.53;32.27;;;;;;;;;;4993520;28;20415;-78
2021/07/13 09:52:41;;;;;;;33.30;31.10;;;;;;;;;;5008643;28;20420;-76
2021/07/13 09:55:18;;;;;;;35.27;32.77;;;;;;;;;;5054457;28;20420;-77
2021/07/13 09:57:45;;;;;;;34.33;31.60;;;;;;;;;;5054770;28;20461;-77
2021/07/13 10:00:13;;;;;;;34.40;32.20;;;;;;;;;;5054634;28;20443;-77
2021/07/13 10:02:40;;;;;;;35.90;33.40;;;;;;;;;;5054895;28;20501;-77
2021/07/13 10:05:08;;;;;;;33.73;31.53;;;;;;;;;;5054727;28;20524;-78
2021/07/13 10:07:38;;;;;;;37.33;34.43;;;;;;;;;;5054557;28;20461;-78
2021/07/13 10:10:08;;;;;;;33.40;31.10;;;;;;;;;;5054642;28;20453;-78
2021/07/13 10:12:36;;;;;;;37.53;34.90;;;;;;;;;;5053934;28;20446;-78
2021/07/13 10:15:03;;;;;;;37.17;34.57;;;;;;;;;;5054633;28;20430;-78
2021/07/13 10:17:31;;;;;;;36.30;33.80;;;;;;;;;;5054583;28;20405;-78
2021/07/13 10:20:02;;;;;;;37.73;35.10;;;;;;;;;;5054215;28;20428;-78
2021/07/13 10:22:29;;;;;;;37.83;35.13;;;;;;;;;;5054001;28;20451;-78
2021/07/13 10:24:59;;;;;;;36.53;33.83;;;;;;;;;;5054067;28;20485;-78
2021/07/13 10:27:29;;;;;;;37.07;34.20;;;;;;;;;;5053967;28;20910;-77
2021/07/13 10:29:57;;;;;;;39.23;36.13;;;;;;;;;;5054323;28;20430;-78
2021/07/13 10:32:34;;;;;;;37.37;34.67;;;;;;;;;;5054309;28;20800;-78
2021/07/13 10:35:04;;;;;;;37.97;34.77;;;;;;;;;;5054238;28;20423;-78
2021/07/13 10:37:33;;;;;;;38.37;35.57;;;;;;;;;;5053945;28;20415;-78
2021/07/13 10:40:02;;;;;;;37.27;34.67;;;;;;;;;;5053598;28;20442;-78
2021/07/13 10:42:45;;;;;;;37.63;34.83;;;;;;;;;;5053632;28;20486;-78
2021/07/13 10:45:13;;;;;;;37.20;34.50;;;;;;;;;;5052234;28;20460;-78
2021/07/13 10:47:56;;;;;;;37.03;34.47;;;;;;;;;;5053979;28;20445;-78
2021/07/13 10:50:37;;;;;;;36.33;34.00;;;;;;;;;;5053863;28;20464;-79
2021/07/13 10:53:05;;;;;;;38.73;35.93;;;;;;;;;;5053953;28;20469;-78
2021/07/13 10:55:51;;;;;;;36.00;33.43;;;;;;;;;;5053515;28;20423;-78
2021/07/13 10:58:38;;;;;;;35.73;33.10;;;;;;;;;;5053564;28;20450;-78
2021/07/13 11:01:15;;;;;;;37.33;34.73;;;;;;;;;;5053767;28;20817;-78
2021/07/13 11:03:50;;;;;;;37.00;34.27;;;;;;;;;;5053445;28;20569;-78
2021/07/13 11:06:18;;;;;;;38.20;35.60;;;;;;;;;;5053754;28;20788;-78
2021/07/13 11:08:52;;;;;;;38.73;35.67;;;;;;;;;;5053556;28;20416;-78
2021/07/13 11:11:38;;;;;;;39.83;36.97;;;;;;;;;;5053341;28;20453;-78
2021/07/13 11:14:08;;;;;;;36.90;34.30;;;;;;;;;;5053674;28;20508;-78
2021/07/13 11:16:36;;;;;;;39.07;36.37;;;;;;;;;;5053721;28;20538;-78
2021/07/13 11:19:04;;;;;;;40.20;37.13;;;;;;;;;;5053921;28;20446;-78
2021/07/13 11:21:35;;;;;;;40.77;38.07;;;;;;;;;;5035510;28;20979;-79
2021/07/13 11:24:11;;;;;;;39.23;36.13;;;;;;;;;;5055936;28;20479;-78
2021/07/13 11:26:39;;;;;;;39.47;36.57;;;;;;;;;;5057367;28;20560;-79
2021/07/13 11:29:09;;;;;;;40.03;37.23;;;;;;;;;;5057731;28;20769;-79
2021/07/13 11:31:37;;;;;;;38.13;35.33;;;;;;;;;;5057655;28;20405;-79
2021/07/13 11:34:05;;;;;;;36.73;34.13;;;;;;;;;;5057684;28;20413;-79
2021/07/13 11:36:33;;;;;;;36.73;34.33;;;;;;;;;;5057215;28;20895;-78
2021/07/13 11:39:02;;;;;;;35.83;33.47;;;;;;;;;;5057388;28;20409;-78
2021/07/13 11:41:30;;;;;;;34.97;32.70;;;;;;;;;;5057173;28;20476;-79
2021/07/13 11:43:58;;;;;;;33.37;31.27;;;;;;;;;;5057286;28;20996;-78
2021/07/13 11:46:28;;;;;;;36.00;33.70;;;;;;;;;;5057437;28;20508;-78
2021/07/13 11:48:57;;;;;;;35.80;33.43;;;;;;;;;;5057139;28;20420;-78
2021/07/13 11:51:25;;;;;;;34.77;32.27;;;;;;;;;;5057056;28;20413;-79
2021/07/13 11:53:59;;;;;;;35.03;32.80;;;;;;;;;;5057498;28;20488;-79
2021/07/13 11:56:27;;;;;;;32.20;30.20;;;;;;;;;;5056949;28;20434;-78
2021/07/13 11:58:54;;;;;;;31.40;29.50;;;;;;;;;;5039602;28;20409;-78
2021/07/13 12:01:22;;;;;;;31.37;29.47;;;;;;;;;;5056825;28;20446;-79
2021/07/13 12:03:52;;;;;;;33.57;31.37;;;;;;;;;;5057001;28;20479;-78
2021/07/13 12:06:20;;;;;;;32.83;30.63;;;;;;;;;;5057007;28;20461;-79
2021/07/13 12:08:54;;;;;;;32.70;30.67;;;;;;;;;;5039057;28;20969;-78
2021/07/13 12:11:23;;;;;;;33.50;31.27;;;;;;;;;;5056659;28;20911;-79
2021/07/13 12:13:51;;;;;;;33.17;31.07;;;;;;;;;;5057686;28;20433;-79
2021/07/13 12:16:19;;;;;;;32.70;30.70;;;;;;;;;;5056741;28;20442;-78
2021/07/13 12:18:47;;;;;;;31.00;29.10;;;;;;;;;;5057003;28;20437;-78
2021/07/13 12:21:16;;;;;;;32.20;30.20;;;;;;;;;;5056674;28;20916;-78
2021/07/13 12:23:45;;;;;;;31.30;29.30;;;;;;;;;;5056280;28;20505;-79
2021/07/13 12:26:22;;;;;;;32.60;30.50;;;;;;;;;;5056445;28;20412;-79
2021/07/13 12:29:06;;;;;;;32.30;30.30;;;;;;;;;;5056486;28;20413;-78
2021/07/13 12:31:35;;;;;;;32.30;30.30;;;;;;;;;;5056999;28;20441;-78
2021/07/13 12:34:04;;;;;;;32.43;30.30;;;;;;;;;;5056231;28;20416;-78
2021/07/13 12:36:34;;;;;;;32.00;30.00;;;;;;;;;;5055486;28;20452;-78
2021/07/13 12:39:13;;;;;;;33.53;31.43;;;;;;;;;;5055445;28;20863;-78
2021/07/13 12:41:41;;;;;;;32.60;30.60;;;;;;;;;;5055597;28;20457;-79
2021/07/13 12:44:23;;;;;;;31.37;29.47;;;;;;;;;;5056293;28;20457;-78
2021/07/13 12:46:50;;;;;;;33.53;31.30;;;;;;;;;;5055563;28;20454;-78
2021/07/13 12:49:18;;;;;;;32.67;30.67;;;;;;;;;;5056285;28;20438;-78
2021/07/13 12:51:46;;;;;;;32.73;30.83;;;;;;;;;;5056020;28;20417;-78
2021/07/13 12:54:14;;;;;;;32.37;30.47;;;;;;;;;;5056242;28;20409;-78
2021/07/13 12:56:41;;;;;;;31.97;29.97;;;;;;;;;;5055828;28;20435;-79
2021/07/13 12:59:09;;;;;;;33.50;31.30;;;;;;;;;;5055847;28;20417;-79
2021/07/13 13:01:37;;;;;;;34.73;32.43;;;;;;;;;;5055646;28;20461;-79
2021/07/13 13:04:11;;;;;;;31.73;29.83;;;;;;;;;;5055906;28;20475;-78
2021/07/13 13:06:39;;;;;;;32.00;30.00;;;;;;;;;;5055958;28;20421;-79
2021/07/13 13:09:12;;;;;;;32.63;30.50;;;;;;;;;;5055452;28;20445;-78
2021/07/13 13:11:40;;;;;;;32.43;30.43;;;;;;;;;;5037849;28;20489;-77
2021/07/13 13:14:09;;;;;;;31.00;29.07;;;;;;;;;;5055497;28;20439;-77
2021/07/13 13:16:38;;;;;;;31.47;29.37;;;;;;;;;;5055319;28;20409;-78
2021/07/13 13:19:06;;;;;;;31.77;29.87;;;;;;;;;;5055675;28;20420;-78
2021/07/13 13:21:36;;;;;;;31.23;29.33;;;;;;;;;;5055611;28;20450;-78
2021/07/13 13:24:04;;;;;;;33.47;31.33;;;;;;;;;;5055422;28;20607;-78
2021/07/13 13:26:33;;;;;;;34.13;31.83;;;;;;;;;;5055445;28;20417;-83
2021/07/13 13:29:00;;;;;;;32.87;30.67;;;;;;;;;;5055460;28;20467;-78
2021/07/13 13:31:28;;;;;;;34.20;32.00;;;;;;;;;;5054916;28;20933;-79
2021/07/13 13:33:56;;;;;;;30.93;28.80;;;;;;;;;;5053573;28;20446;-84
2021/07/13 13:36:26;;;;;;;33.83;31.53;;;;;;;;;;5055429;28;20439;-80
2021/07/13 13:38:56;;;;;;;34.60;32.30;;;;;;;;;;5054938;28;20849;-81
2021/07/13 13:41:24;;;;;;;33.60;31.20;;;;;;;;;;5054584;28;21006;-81
2021/07/13 13:43:53;;;;;;;32.47;30.47;;;;;;;;;;5055159;28;20488;-81
2021/07/13 13:46:21;;;;;;;35.33;33.00;;;;;;;;;;5054186;28;20449;-80
2021/07/13 13:48:48;;;;;;;33.13;31.03;;;;;;;;;;5054516;28;20458;-80
2021/07/13 13:51:16;;;;;;;35.10;33.00;;;;;;;;;;5055104;28;20417;-80
2021/07/13 13:53:44;;;;;;;35.17;32.70;;;;;;;;;;5055104;28;20561;-81
2021/07/13 13:56:12;;;;;;;32.87;30.97;;;;;;;;;;5054580;28;20401;-81
2021/07/13 13:58:39;;;;;;;34.03;31.90;;;;;;;;;;5054983;28;20435;-81
2021/07/13 14:01:09;;;;;;;31.70;29.80;;;;;;;;;;5054718;28;20409;-81
2021/07/13 14:03:36;;;;;;;33.30;31.30;;;;;;;;;;5054717;28;20489;-81
2021/07/13 14:06:04;;;;;;;32.13;30.30;;;;;;;;;;5054802;28;20416;-81
2021/07/13 14:08:32;;;;;;;34.03;31.93;;;;;;;;;;5054594;28;20924;-80
2021/07/13 14:11:00;;;;;;;33.90;31.37;;;;;;;;;;5054398;28;20439;-80
2021/07/13 14:13:27;;;;;;;33.30;31.37;;;;;;;;;;5054724;28;20442;-80
2021/07/13 14:15:55;;;;;;;32.47;30.60;;;;;;;;;;5054582;28;20791;-80
2021/07/13 14:18:24;;;;;;;33.10;31.17;;;;;;;;;;5054216;28;20422;-80
2021/07/13 14:20:52;;;;;;;32.70;30.70;;;;;;;;;;5054499;28;20793;-80
2021/07/13 14:23:19;;;;;;;32.10;30.17;;;;;;;;;;5054180;28;20457;-81
2021/07/13 14:25:47;;;;;;;33.70;31.60;;;;;;;;;;5054021;28;20926;-81